• Join FlightAware (Why Join?)
  • Login
  • US Flag 
10:40PM EDT


 

Airport Tracker/Info


-or-


 

Live Flight TrackerFlight Track Log ✈ FLG3642 ✈ 08-May-2013 ✈ KGRR - KDTW

Flight Track Log - Related Links

Times and Time Zones

All times are in EDT time to prevent confusion due to time zone crossing. See the FLG3642 flight status page for this flight to view local times or setup timezone preferences in your user account.

Time Position Orientation Groundspeed Altitude Reporting Facility
EDT Latitude Longitude Course Direction KTS MPH feet Rate Location/Type
06:11AM 42.8894 -85.4567 60° Northeast 163 188 2,800  Level Chicago Center
06:12AM 42.9103 -85.3836 69° East 199 229 4,600 2,100 Climbing Chicago Center
06:13AM 42.9356 -85.2928 69° East 244 281 7,100 2,640 Climbing Chicago Center
06:14AM 42.8631 -85.2561 62° Northeast  Level FlightAware Approximate
06:14AM 42.9386 -85.1881 88° East 273 314 9,900  Level Chicago Center
06:15AM 42.8949 -85.1735 62° Northeast  Level FlightAware Approximate
06:15AM 42.9322 -85.0731 94° East 300 345 11,500  Level Chicago Center
06:16AM 42.9330 -85.0787 60° Northeast  Level FlightAware Approximate
06:16AM 42.9228 -84.9422 96° East 341 392 13,500  Level Chicago Center
06:17AM 42.9147 -84.8083 95° East 354 407 14,000 720 Climbing Chicago Center
06:18AM 42.9050 -84.6711 95° East 361 415 15,000 480 Climbing Chicago Center
06:19AM 42.8964 -84.5289 95° East 374 430 15,000  Level Chicago Center
06:20AM 42.8858 -84.3844 96° East 384 442 15,000 -60 Level Chicago Center
06:21AM 42.8761 -84.2808 97° East 372 428 14,900 -780 Descending Cleveland Center
06:21AM 42.8708 -84.1869 94° East 370 426 14,000 -1,320 Descending Cleveland Center
06:22AM 42.8658 -84.1442 99° East 369 425 13,700 -1,080 Descending Cleveland Center
06:23AM 42.8575 -84.0047 95° East 365 420 12,600 -900 Descending Cleveland Center
06:24AM 42.8469 -83.8711 96° East 362 417 12,000 -300 Descending Cleveland Center
06:25AM 42.8233 -83.7453 104° East 347 399 12,100  Climbing Cleveland Center
06:26AM 42.7417 -83.6789 149° Southeast 339 390 12,000 -60 Descending Cleveland Center
06:27AM 42.6494 -83.6236 156° South 327 376 12,000  Level Cleveland Center
06:28AM 42.5550 -83.5683 157° South 348 400 12,000 -420 Level Cleveland Center
06:29AM 42.4644 -83.5161 157° South 359 413 11,200 -900 Descending Cleveland Center
06:30AM 42.3878 -83.4956 169° South 337 388 10,300 -1,500 Descending Cleveland Center
06:31AM 42.3044 -83.4919 178° South 273 314 8,200 -1,980 Descending Cleveland Center
06:32AM 42.2328 -83.5306 202° Southwest 271 312 6,300 -1,680 Descending Cleveland Center
06:33AM 42.1631 -83.5667 201° Southwest 256 295 4,800 -1,260 Descending Cleveland Center
06:34AM 42.1106 -83.5753 187° South 192 221 3,800 -900 Descending Cleveland Center
06:35AM 42.1061 -83.5053 95° East 181 208 3,100 -660 Descending Cleveland Center
06:36AM 42.1203 -83.4469 72° East 161 185 2,500 -600 Descending Cleveland Center